Time;durP1;ratioP1;P1;durP2;ratioP2;P2;SDS_P1;SDS_P2;PMS_P1;PMS_P2;Temp;Humidity;BMP_temperature;BMP_pressure;BME280_temperature;BME280_humidity;BME280_pressure;Samples;Min_cycle;Max_cycle;Signal;HPM_P1;HPM_P2
2021/08/22 00:01:39;;;;;;;7.43;6.45;;;;;;;21.86;74.89;100025.69;10328076;28;20127;-60
2021/08/22 00:06:41;;;;;;;7.70;6.20;;;;;;;21.76;75.77;100029.84;10333570;28;20099;-60
2021/08/22 00:11:42;;;;;;;7.78;5.50;;;;;;;21.67;74.99;100053.53;10325277;28;20140;-60
2021/08/22 00:16:45;;;;;;;7.03;4.78;;;;;;;21.58;77.22;100061.00;10327354;28;20068;-59
2021/08/22 00:21:46;;;;;;;5.90;5.30;;;;;;;21.46;77.71;100052.56;10334688;28;20143;-59
2021/08/22 00:26:48;;;;;;;7.03;4.53;;;;;;;21.42;77.64;100029.63;10343191;28;20511;-59
2021/08/22 00:31:49;;;;;;;5.25;4.75;;;;;;;21.42;77.40;100020.69;10331064;28;20180;-58
2021/08/22 00:36:50;;;;;;;5.30;4.20;;;;;;;21.36;76.47;100034.00;10330541;28;26300;-59
2021/08/22 00:41:52;;;;;;;4.40;3.75;;;;;;;21.35;76.52;100042.31;10335326;28;20046;-59
2021/08/22 00:46:55;;;;;;;4.57;4.07;;;;;;;21.27;77.97;100080.34;10334179;28;20065;-59
2021/08/22 00:51:58;;;;;;;4.43;3.97;;;;;;;21.33;76.95;100071.44;10344114;28;20061;-58
2021/08/22 00:56:59;;;;;;;6.50;4.00;;;;;;;21.31;76.17;100066.22;10329031;28;20073;-59
2021/08/22 01:02:01;;;;;;;4.53;3.83;;;;;;;21.40;77.10;100066.06;10342820;28;20605;-59
2021/08/22 01:07:24;;;;;;;4.70;4.20;;;;;;;21.42;78.83;100067.53;10337113;28;20080;-60
2021/08/22 01:12:41;;;;;;;4.72;3.67;;;;;;;21.30;78.76;100058.28;10334604;28;20050;-60
2021/08/22 01:17:47;;;;;;;4.45;3.53;;;;;;;21.32;76.62;100051.66;10332239;28;20058;-60
2021/08/22 01:22:51;;;;;;;3.40;3.10;;;;;;;21.15;74.61;100039.47;10335130;28;20058;-59
2021/08/22 01:27:55;;;;;;;3.70;3.10;;;;;;;20.99;75.39;100037.91;10324788;28;20054;-59
2021/08/22 01:32:57;;;;;;;5.75;3.95;;;;;;;20.82;75.53;100046.31;10329780;28;20112;-59
2021/08/22 01:37:58;;;;;;;4.90;4.50;;;;;;;20.86;76.99;100057.56;10330381;28;20065;-59
2021/08/22 01:43:01;;;;;;;4.95;4.32;;;;;;;20.73;77.53;100054.75;10328498;28;20401;-59
2021/08/22 01:48:05;;;;;;;5.83;4.50;;;;;;;20.55;77.03;100064.16;10329701;28;20131;-59
2021/08/22 01:53:08;;;;;;;5.15;4.10;;;;;;;20.48;77.72;100072.19;10341211;28;20074;-59
2021/08/22 01:58:09;;;;;;;7.20;4.97;;;;;;;20.45;78.12;100077.97;10340724;28;20078;-59
2021/08/22 02:03:21;;;;;;;5.65;4.68;;;;;;;20.51;77.43;100062.84;10339200;28;20054;-58
2021/08/22 02:08:28;;;;;;;4.63;4.13;;;;;;;20.28;77.17;100054.91;10325366;28;20038;-59
2021/08/22 02:13:34;;;;;;;5.18;4.15;;;;;;;20.19;78.98;100067.75;10332730;28;20143;-59
2021/08/22 02:18:38;;;;;;;5.00;4.45;;;;;;;20.24;78.00;100070.69;10334831;28;20153;-59
2021/08/22 02:23:40;;;;;;;5.65;4.00;;;;;;;20.22;77.26;100080.00;10330472;28;20100;-59
2021/08/22 02:28:41;;;;;;;5.35;4.28;;;;;;;20.24;77.00;100076.09;10328276;28;20119;-59
2021/08/22 02:33:43;;;;;;;3.95;3.53;;;;;;;20.06;77.32;100073.81;10328000;28;20462;-59
2021/08/22 02:38:44;;;;;;;4.88;4.15;;;;;;;20.08;78.02;100076.31;10332352;28;21653;-59
2021/08/22 02:43:46;;;;;;;4.45;4.03;;;;;;;20.05;77.94;100082.94;10327651;28;22065;-60
2021/08/22 02:48:47;;;;;;;4.97;4.32;;;;;;;20.12;77.79;100083.84;10327312;28;20056;-59
2021/08/22 02:53:49;;;;;;;5.07;4.00;;;;;;;20.03;78.91;100079.59;10332034;28;20237;-59
2021/08/22 02:58:50;;;;;;;4.68;4.07;;;;;;;19.95;78.99;100088.66;10334866;28;20077;-61
2021/08/22 03:03:51;;;;;;;5.82;4.05;;;;;;;19.86;80.11;100083.53;10334939;28;20503;-59
2021/08/22 03:08:53;;;;;;;5.88;4.05;;;;;;;19.96;79.43;100084.06;10329687;28;20490;-59
2021/08/22 03:13:54;;;;;;;5.03;4.57;;;;;;;20.08;78.43;100079.84;10322874;28;20049;-59
2021/08/22 03:18:56;;;;;;;5.53;3.78;;;;;;;20.05;78.96;100074.84;10318379;28;20133;-59
2021/08/22 03:23:57;;;;;;;4.03;3.55;;;;;;;19.91;79.28;100075.72;10330079;28;20112;-59
2021/08/22 03:28:59;;;;;;;6.05;4.50;;;;;;;19.74;80.85;100075.91;10337453;28;20649;-59
2021/08/22 03:34:00;;;;;;;5.00;3.95;;;;;;;19.77;80.73;100080.94;10325082;28;20084;-59
2021/08/22 03:39:01;;;;;;;5.53;4.10;;;;;;;19.82;81.16;100082.25;10328870;28;20711;-59
2021/08/22 03:44:04;;;;;;;3.75;3.42;;;;;;;19.77;82.02;100090.88;10319933;28;20053;-59
2021/08/22 03:49:05;;;;;;;4.40;4.00;;;;;;;19.71;81.99;100091.63;10327925;28;20535;-64
2021/08/22 03:54:07;;;;;;;4.93;3.97;;;;;;;19.69;82.91;100099.06;10337398;28;20108;-59
2021/08/22 03:59:09;;;;;;;4.43;3.80;;;;;;;19.60;82.32;100082.97;10331957;28;20141;-59
2021/08/22 04:04:10;;;;;;;4.65;3.63;;;;;;;19.57;84.08;100087.91;10324264;28;20078;-59
2021/08/22 04:09:12;;;;;;;4.28;3.63;;;;;;;19.50;84.25;100092.38;10327172;28;20663;-59
2021/08/22 04:14:14;;;;;;;5.72;5.20;;;;;;;19.63;83.38;100095.25;10329536;28;20101;-59
2021/08/22 04:19:16;;;;;;;6.38;4.25;;;;;;;19.57;84.45;100107.63;10334646;28;20052;-59
2021/08/22 04:24:18;;;;;;;4.75;3.72;;;;;;;19.58;84.79;100106.63;10336327;28;20074;-59
2021/08/22 04:29:19;;;;;;;6.03;5.43;;;;;;;19.54;84.11;100104.47;10327218;28;20376;-59
2021/08/22 04:34:21;;;;;;;3.92;3.40;;;;;;;19.61;83.58;100103.53;10320094;28;20088;-59
2021/08/22 04:39:23;;;;;;;5.88;3.92;;;;;;;19.66;84.35;100108.38;10331510;28;20357;-59
2021/08/22 04:44:24;;;;;;;4.43;3.70;;;;;;;19.55;84.32;100103.47;10327189;28;20066;-59
2021/08/22 04:49:25;;;;;;;4.25;3.70;;;;;;;19.35;86.19;100112.09;10337350;28;20073;-59
2021/08/22 04:54:27;;;;;;;3.97;3.33;;;;;;;19.52;84.16;100103.84;10327794;28;20491;-59
2021/08/22 04:59:28;;;;;;;5.07;4.07;;;;;;;19.34;85.13;100107.72;10343864;28;20811;-59
2021/08/22 05:04:30;;;;;;;6.55;4.53;;;;;;;19.36;85.12;100116.47;10338947;28;20091;-59
2021/08/22 05:09:32;;;;;;;5.63;3.97;;;;;;;19.24;86.32;100115.25;10344452;28;20112;-59
2021/08/22 05:14:34;;;;;;;4.65;4.22;;;;;;;19.24;86.71;100117.94;10341863;28;20089;-59
2021/08/22 05:19:36;;;;;;;5.15;4.25;;;;;;;19.31;86.20;100118.06;10347642;28;20103;-59
2021/08/22 05:24:38;;;;;;;6.88;4.75;;;;;;;19.36;85.99;100116.47;10346009;28;20439;-60
2021/08/22 05:29:39;;;;;;;4.82;4.15;;;;;;;19.38;85.64;100125.22;10346529;28;20096;-59
2021/08/22 05:34:40;;;;;;;5.80;4.07;;;;;;;19.54;85.25;100135.00;10339474;28;20073;-59
2021/08/22 05:39:42;;;;;;;4.28;3.85;;;;;;;19.63;83.80;100135.75;10343068;28;20466;-59
2021/08/22 05:44:43;;;;;;;5.15;4.65;;;;;;;19.77;83.70;100136.78;10334875;28;20058;-59
2021/08/22 05:49:45;;;;;;;6.18;4.40;;;;;;;19.81;83.44;100137.28;10338052;28;20070;-59
2021/08/22 05:54:46;;;;;;;5.93;5.25;;;;;;;19.85;82.66;100141.28;10335899;28;20078;-59
2021/08/22 05:59:48;;;;;;;7.50;4.65;;;;;;;19.89;82.72;100145.28;10349920;28;20107;-60
2021/08/22 06:04:49;;;;;;;5.35;4.82;;;;;;;19.89;82.46;100153.38;10344706;28;20088;-59
2021/08/22 06:09:51;;;;;;;5.82;5.22;;;;;;;19.86;82.67;100164.56;10339034;28;20053;-60
2021/08/22 06:14:53;;;;;;;6.18;5.63;;;;;;;19.85;83.07;100162.91;10307468;28;20054;-60
2021/08/22 06:19:54;;;;;;;5.80;5.05;;;;;;;19.91;82.62;100171.09;10320076;28;20200;-59
2021/08/22 06:24:56;;;;;;;6.45;5.40;;;;;;;19.99;81.94;100178.25;10323319;28;20228;-59
2021/08/22 06:30:00;;;;;;;9.45;6.68;;;;;;;19.96;82.27;100175.94;10319337;28;20523;-64
2021/08/22 06:35:05;;;;;;;6.75;6.07;;;;;;;20.06;82.33;100178.34;10317912;28;20061;-59
2021/08/22 06:40:07;;;;;;;5.65;5.03;;;;;;;20.14;81.21;100187.16;10322068;28;20233;-59
2021/08/22 06:45:09;;;;;;;5.70;5.15;;;;;;;20.20;80.29;100198.28;10318869;28;20132;-60
2021/08/22 06:50:11;;;;;;;7.05;6.35;;;;;;;20.31;79.73;100200.47;10323691;28;20104;-59
2021/08/22 06:55:12;;;;;;;8.63;7.82;;;;;;;20.44;79.40;100199.81;10320030;28;20116;-59
2021/08/22 07:00:15;;;;;;;8.15;7.43;;;;;;;20.38;78.69;100204.13;10316305;28;20053;-60
2021/08/22 07:05:17;;;;;;;7.53;6.25;;;;;;;20.61;77.98;100200.44;10333472;28;20598;-60
2021/08/22 07:10:18;;;;;;;7.43;6.25;;;;;;;20.76;78.93;100212.09;10321572;28;20490;-60
2021/08/22 07:15:20;;;;;;;8.88;7.93;;;;;;;20.77;77.52;100215.63;10316247;28;20070;-59
2021/08/22 07:20:21;;;;;;;7.45;6.75;;;;;;;20.77;78.21;100211.03;10321981;28;20143;-59
2021/08/22 07:25:23;;;;;;;7.05;6.35;;;;;;;20.77;77.14;100211.03;10318292;28;20127;-59
2021/08/22 07:30:25;;;;;;;6.72;6.05;;;;;;;20.88;77.47;100206.16;10318234;28;20144;-60
2021/08/22 07:35:27;;;;;;;6.68;5.65;;;;;;;21.21;76.14;100200.22;10311647;28;20054;-59
2021/08/22 07:40:28;;;;;;;5.57;5.07;;;;;;;21.57;75.40;100200.13;10319495;28;21029;-60
2021/08/22 07:45:30;;;;;;;6.22;5.20;;;;;;;21.88;74.03;100197.00;10320181;28;20149;-59
2021/08/22 07:50:31;;;;;;;7.03;5.95;;;;;;;22.00;73.25;100199.19;10317158;28;20707;-59
2021/08/22 07:55:33;;;;;;;7.90;5.28;;;;;;;21.74;70.78;100200.69;10318464;28;20464;-60
2021/08/22 08:00:35;;;;;;;7.47;5.43;;;;;;;21.61;71.42;100211.44;10315936;28;20054;-59
2021/08/22 08:05:36;;;;;;;5.97;5.10;;;;;;;21.67;71.22;100210.63;10310808;28;20068;-59
2021/08/22 08:10:38;;;;;;;5.28;4.68;;;;;;;21.59;71.10;100214.34;10310665;28;20518;-60
2021/08/22 08:15:39;;;;;;;4.88;4.38;;;;;;;21.60;71.58;100215.16;10313672;28;21408;-60
2021/08/22 08:20:40;;;;;;;7.38;4.90;;;;;;;21.57;71.63;100215.56;10318048;28;20396;-60
2021/08/22 08:25:42;;;;;;;4.30;3.90;;;;;;;21.47;71.25;100214.00;10312506;28;20137;-60
2021/08/22 08:30:43;;;;;;;5.22;4.65;;;;;;;21.49;70.95;100232.75;10315752;28;20107;-60
2021/08/22 08:35:45;;;;;;;4.78;4.28;;;;;;;21.42;70.76;100224.56;10316505;28;20315;-60
2021/08/22 08:40:46;;;;;;;4.97;4.47;;;;;;;21.34;70.96;100227.41;10320243;28;20518;-59
2021/08/22 08:46:04;;;;;;;4.78;3.55;;;;;;;21.48;71.33;100229.22;10317282;28;20518;-59
2021/08/22 08:51:23;;;;;;;4.55;3.50;;;;;;;21.79;69.14;100233.44;10317655;28;20046;-59
2021/08/22 08:56:29;;;;;;;4.00;3.45;;;;;;;21.78;68.92;100229.03;10333641;28;20125;-59
2021/08/22 09:01:30;;;;;;;4.30;3.90;;;;;;;21.84;68.34;100222.84;10320301;28;20080;-59
2021/08/22 09:07:11;;;;;;;3.53;3.03;;;;;;;21.96;67.87;100209.56;10323472;28;20048;-59
2021/08/22 09:12:43;;;;;;;3.88;3.10;;;;;;;22.00;67.45;100212.72;10289578;28;20108;-59
2021/08/22 09:18:22;;;;;;;5.22;3.95;;;;;;;22.03;66.78;100220.47;10320839;28;20073;-59
2021/08/22 09:23:48;;;;;;;3.65;2.90;;;;;;;22.13;67.31;100239.06;10316157;28;20136;-59
2021/08/22 09:29:27;;;;;;;4.78;3.72;;;;;;;22.01;66.93;100238.81;10320043;28;20074;-59
2021/08/22 09:35:08;;;;;;;4.65;3.88;;;;;;;21.87;67.45;100243.28;10318583;28;20069;-59
2021/08/22 09:40:47;;;;;;;4.15;2.97;;;;;;;22.04;67.81;100246.53;10311078;28;20054;-59
2021/08/22 09:45:51;;;;;;;5.05;3.53;;;;;;;22.10;65.76;100240.31;10314338;28;20124;-60
2021/08/22 09:51:09;;;;;;;3.50;3.17;;;;;;;22.27;65.16;100237.28;10314078;28;20050;-61
2021/08/22 09:56:38;;;;;;;3.95;3.03;;;;;;;22.22;64.39;100225.16;10310061;28;20191;-60
2021/08/22 10:02:17;;;;;;;4.43;3.85;;;;;;;22.43;64.70;100226.13;10311156;28;20097;-60
2021/08/22 10:07:25;;;;;;;3.90;3.40;;;;;;;22.33;64.47;100239.22;10312046;28;20060;-59
2021/08/22 10:12:27;;;;;;;5.80;3.28;;;;;;;22.29;64.42;100236.00;10281534;28;1123512;-60
2021/08/22 10:17:28;;;;;;;3.50;3.20;;;;;;;22.84;62.38;100227.09;10314161;28;20054;-60
2021/08/22 10:22:30;;;;;;;3.25;2.90;;;;;;;23.50;61.09;100225.53;10310643;28;20046;-60
2021/08/22 10:27:34;;;;;;;3.35;3.00;;;;;;;23.46;60.65;100219.66;10316124;28;20180;-60
2021/08/22 10:32:58;;;;;;;4.00;3.25;;;;;;;23.41;61.28;100216.75;10312673;28;20182;-60
2021/08/22 10:38:20;;;;;;;4.97;3.72;;;;;;;23.29;60.33;100214.66;10311765;28;20069;-61
2021/08/22 10:43:24;;;;;;;4.43;3.80;;;;;;;23.52;61.05;100207.97;10309666;28;20155;-60
2021/08/22 10:48:26;;;;;;;4.10;3.22;;;;;;;25.32;58.06;100187.38;10308243;28;20046;-61
2021/08/22 10:53:35;;;;;;;2.93;2.63;;;;;;;26.92;52.23;100173.00;10307206;28;20125;-60
2021/08/22 10:58:55;;;;;;;3.97;3.13;;;;;;;27.74;46.79;100158.56;10310507;28;20056;-61
2021/08/22 11:04:22;;;;;;;4.68;3.20;;;;;;;26.71;49.20;100166.13;10314283;28;20069;-61
2021/08/22 11:09:43;;;;;;;3.92;3.38;;;;;;;27.69;46.23;100159.28;10319309;28;20054;-60
2021/08/22 11:14:44;;;;;;;3.15;2.85;;;;;;;27.86;46.34;100156.66;10313840;28;20114;-61
2021/08/22 11:19:46;;;;;;;3.53;2.85;;;;;;;29.53;42.46;100151.22;10312562;28;20069;-63
2021/08/22 11:24:50;;;;;;;3.22;2.92;;;;;;;28.21;44.26;100149.47;10312753;28;20458;-60
2021/08/22 11:30:09;;;;;;;3.47;3.03;;;;;;;27.51;45.79;100143.00;10311332;28;20069;-61
2021/08/22 11:35:14;;;;;;;3.72;3.00;;;;;;;26.19;48.73;100134.69;10320770;28;20099;-61
2021/08/22 11:40:19;;;;;;;4.18;3.25;;;;;;;25.17;53.82;100127.75;10333499;28;20049;-60
2021/08/22 11:45:24;;;;;;;3.60;3.30;;;;;;;24.51;57.39;100142.66;10311632;28;21031;-60
2021/08/22 11:50:28;;;;;;;3.78;3.42;;;;;;;24.23;59.14;100132.13;10329756;28;20046;-61
2021/08/22 11:55:32;;;;;;;4.20;3.80;;;;;;;23.84;59.42;100129.34;10320142;28;20061;-61
2021/08/22 12:00:33;;;;;;;2.72;2.03;;;;;;;23.37;60.16;100123.16;10319490;28;20571;-61
2021/08/22 12:05:35;;;;;;;2.47;2.20;;;;;;;22.60;63.33;100132.47;10316016;28;20047;-61
2021/08/22 12:10:39;;;;;;;6.55;3.20;;;;;;;22.28;72.31;100163.00;10311999;28;20178;-61
2021/08/22 12:15:41;;;;;;;6.38;2.70;;;;;;;21.76;69.63;100139.00;10319990;28;20093;-61
2021/08/22 12:20:46;;;;;;;4.57;2.60;;;;;;;21.54;70.97;100147.22;10332741;28;20350;-61
2021/08/22 12:25:48;;;;;;;3.72;2.25;;;;;;;21.21;70.61;100165.03;10327387;28;20589;-61
2021/08/22 12:31:04;;;;;;;4.22;3.33;;;;;;;21.21;72.90;100159.63;10325179;28;21039;-61
2021/08/22 12:36:08;;;;;;;3.97;3.50;;;;;;;21.18;72.44;100167.13;10308384;28;20108;-60
2021/08/22 12:41:29;;;;;;;3.78;3.13;;;;;;;21.31;73.09;100163.66;10319214;28;20095;-61
2021/08/22 12:46:32;;;;;;;3.33;2.53;;;;;;;21.43;70.72;100182.94;10319633;28;20049;-61
2021/08/22 12:51:36;;;;;;;3.50;3.05;;;;;;;21.59;70.88;100180.97;10323847;28;20050;-61
2021/08/22 12:56:38;;;;;;;3.03;2.60;;;;;;;21.66;71.89;100173.75;10337661;28;20125;-61
2021/08/22 13:01:39;;;;;;;4.20;2.92;;;;;;;21.82;70.56;100172.59;10310593;28;20089;-62
2021/08/22 13:06:41;;;;;;;3.40;3.10;;;;;;;22.69;66.20;100164.84;10314152;28;20060;-61
2021/08/22 13:11:43;;;;;;;4.35;2.72;;;;;;;22.22;66.30;100165.50;10319241;28;20132;-62
2021/08/22 13:16:45;;;;;;;3.65;2.75;;;;;;;21.90;68.42;100150.75;10322402;28;20553;-61
2021/08/22 13:21:54;;;;;;;3.97;2.75;;;;;;;21.70;69.50;100150.66;10318113;28;20130;-61
2021/08/22 13:26:56;;;;;;;5.63;3.45;;;;;;;21.69;70.49;100127.28;10327969;28;20056;-61
2021/08/22 13:31:57;;;;;;;3.83;3.25;;;;;;;21.79;69.51;100116.94;10316158;28;20075;-61
2021/08/22 13:36:58;;;;;;;4.80;3.10;;;;;;;21.69;72.38;100141.69;10318148;28;20077;-61
2021/08/22 13:42:00;;;;;;;4.40;3.53;;;;;;;21.61;72.00;100119.34;10343964;28;20085;-59
2021/08/22 13:47:03;;;;;;;5.43;3.80;;;;;;;21.60;71.22;100109.53;10334745;28;20309;-61
2021/08/22 13:52:05;;;;;;;5.38;3.42;;;;;;;21.68;70.98;100104.81;10341648;28;20065;-61
2021/08/22 13:57:06;;;;;;;3.55;3.25;;;;;;;21.97;71.29;100113.69;10324078;28;20140;-60
2021/08/22 14:02:08;;;;;;;3.08;2.78;;;;;;;22.44;68.60;100113.88;10316534;28;20045;-59
2021/08/22 14:07:10;;;;;;;4.05;2.80;;;;;;;22.76;68.11;100109.56;10321334;28;20446;-61
2021/08/22 14:12:11;;;;;;;4.15;2.90;;;;;;;23.62;66.09;100110.56;10317208;28;20462;-60
2021/08/22 14:17:13;;;;;;;4.28;3.85;;;;;;;23.70;65.72;100095.09;10315067;28;20046;-59
2021/08/22 14:22:15;;;;;;;3.80;2.90;;;;;;;22.87;68.59;100108.09;10309129;28;20046;-61
2021/08/22 14:27:17;;;;;;;5.40;3.30;;;;;;;22.14;71.10;100130.44;10312709;28;20132;-60
2021/08/22 14:32:18;;;;;;;4.18;3.00;;;;;;;21.30;72.23;100150.34;10310980;28;20125;-59
2021/08/22 14:37:19;;;;;;;4.88;3.17;;;;;;;20.87;78.33;100145.81;10307477;28;20132;-62
2021/08/22 14:42:21;;;;;;;9.32;4.25;;;;;;;20.73;79.25;100134.03;10312824;28;20097;-59
2021/08/22 14:47:22;;;;;;;4.43;3.15;;;;;;;20.73;79.10;100149.41;10313784;28;20169;-59
2021/08/22 14:52:24;;;;;;;4.80;3.03;;;;;;;20.62;79.27;100202.94;10311773;28;20137;-59
2021/08/22 14:57:26;;;;;;;8.43;5.45;;;;;;;20.54;80.45;100177.91;10314502;28;20064;-60
2021/08/22 15:02:28;;;;;;;7.53;4.40;;;;;;;20.40;80.62;100161.53;10316973;28;20151;-61
2021/08/22 15:07:29;;;;;;;5.82;2.88;;;;;;;20.33;79.89;100155.19;10315034;28;20244;-60
2021/08/22 15:12:33;;;;;;;3.38;2.10;;;;;;;20.17;78.72;100155.41;10307772;28;20161;-61
2021/08/22 15:17:35;;;;;;;2.92;2.22;;;;;;;20.22;78.46;100158.38;10313969;28;20049;-60
2021/08/22 15:22:39;;;;;;;5.50;2.78;;;;;;;20.16;77.85;100170.78;10312560;28;20104;-56
2021/08/22 15:27:41;;;;;;;3.63;2.10;;;;;;;20.05;78.21;100169.38;10314356;28;20078;-55
2021/08/22 15:32:43;;;;;;;5.22;2.42;;;;;;;19.95;78.27;100147.22;10309256;28;20197;-56
2021/08/22 15:37:44;;;;;;;3.65;3.22;;;;;;;19.96;80.09;100154.31;10313414;28;20067;-58
2021/08/22 15:42:46;;;;;;;3.10;1.80;;;;;;;20.15;80.03;100147.50;10310599;28;20137;-55
2021/08/22 15:47:47;;;;;;;4.80;2.42;;;;;;;20.51;78.85;100156.63;10310391;28;20131;-57
2021/08/22 15:52:49;;;;;;;3.72;2.45;;;;;;;21.04;77.66;100167.19;10307093;28;20131;-56
2021/08/22 15:57:50;;;;;;;4.40;2.33;;;;;;;21.15;75.89;100174.78;10317308;28;20131;-57
2021/08/22 16:02:52;;;;;;;3.85;2.28;;;;;;;21.27;77.00;100191.34;10312593;28;20057;-57
2021/08/22 16:07:54;;;;;;;3.38;2.67;;;;;;;21.16;77.24;100198.94;10316077;28;20057;-57
2021/08/22 16:12:56;;;;;;;3.10;2.00;;;;;;;20.88;75.07;100189.94;10310083;28;20050;-56
2021/08/22 16:17:57;;;;;;;2.55;2.10;;;;;;;20.80;76.52;100189.03;10310918;28;20077;-57
2021/08/22 16:23:01;;;;;;;3.63;1.77;;;;;;;20.60;77.01;100209.59;10312097;28;20484;-61
2021/08/22 16:28:02;;;;;;;2.88;2.33;;;;;;;20.48;78.02;100212.78;10310279;28;20471;-59
2021/08/22 16:33:05;;;;;;;3.08;1.92;;;;;;;20.56;78.03;100219.94;10309254;28;20108;-61
2021/08/22 16:38:07;;;;;;;2.63;2.10;;;;;;;20.62;77.41;100218.34;10306542;28;20478;-59
2021/08/22 16:43:08;;;;;;;3.75;2.03;;;;;;;20.78;75.87;100217.31;10308188;28;20145;-60
2021/08/22 16:48:10;;;;;;;2.50;1.85;;;;;;;20.80;77.11;100229.59;10309723;28;20144;-58
2021/08/22 16:53:11;;;;;;;2.35;1.65;;;;;;;20.63;74.36;100225.44;10315210;28;20133;-58
2021/08/22 16:58:13;;;;;;;2.33;1.35;;;;;;;20.49;75.88;100227.97;10320084;28;20114;-61
2021/08/22 17:03:14;;;;;;;1.90;1.58;;;;;;;20.39;77.01;100213.91;10321346;28;20108;-59
2021/08/22 17:08:16;;;;;;;3.10;1.83;;;;;;;20.20;78.02;100209.09;10317813;28;20147;-61
2021/08/22 17:13:17;;;;;;;2.67;2.20;;;;;;;20.12;77.87;100215.44;10314693;28;20141;-61
2021/08/22 17:18:19;;;;;;;4.03;2.40;;;;;;;20.01;79.95;100219.44;10311177;28;20663;-61
2021/08/22 17:23:20;;;;;;;4.63;2.67;;;;;;;19.98;81.69;100210.84;10313741;28;20057;-61
2021/08/22 17:28:22;;;;;;;4.13;3.08;;;;;;;19.96;81.73;100213.75;10314267;28;20137;-60
2021/08/22 17:33:23;;;;;;;5.65;5.05;;;;;;;19.90;81.85;100223.41;10312755;28;20149;-62
2021/08/22 17:38:24;;;;;;;5.25;3.70;;;;;;;19.80;82.13;100224.72;10321446;28;20085;-61
2021/08/22 17:43:26;;;;;;;3.50;3.20;;;;;;;19.35;82.06;100238.94;10309901;28;20185;-61
2021/08/22 17:48:27;;;;;;;5.50;3.20;;;;;;;18.98;84.19;100267.53;10314221;28;20108;-60
2021/08/22 17:53:30;;;;;;;4.75;4.18;;;;;;;19.15;84.25;100280.91;10311278;28;20137;-60
2021/08/22 17:58:31;;;;;;;5.93;3.53;;;;;;;19.29;84.35;100303.56;10313315;28;20070;-60
2021/08/22 18:03:34;;;;;;;8.13;3.95;;;;;;;19.28;84.76;100310.84;10314182;28;20158;-60
2021/08/22 18:08:35;;;;;;;4.45;2.45;;;;;;;19.14;77.76;100333.19;10316464;28;20087;-60
2021/08/22 18:13:37;;;;;;;9.85;2.58;;;;;;;18.72;70.79;100303.72;10312216;28;20212;-65
2021/08/22 18:18:38;;;;;;;2.33;1.20;;;;;;;18.36;71.31;100279.94;10317778;28;20137;-60
2021/08/22 18:23:40;;;;;;;2.72;1.00;;;;;;;18.23;72.36;100268.84;10307079;28;20188;-60
2021/08/22 18:28:41;;;;;;;2.15;0.90;;;;;;;18.04;74.39;100288.09;10313905;28;20627;-59
2021/08/22 18:33:43;;;;;;;1.80;0.90;;;;;;;17.95;74.60;100300.72;10313040;28;20116;-59
2021/08/22 18:38:45;;;;;;;3.55;1.58;;;;;;;17.88;75.30;100311.31;10313206;28;20052;-59
2021/08/22 18:43:47;;;;;;;2.55;1.13;;;;;;;17.93;75.70;100327.84;10307153;28;20184;-59
2021/08/22 18:48:48;;;;;;;2.33;1.25;;;;;;;17.82;72.64;100338.94;10310177;28;20157;-60
2021/08/22 18:53:50;;;;;;;3.00;1.50;;;;;;;17.63;76.52;100338.25;10315215;28;20533;-59
2021/08/22 18:58:51;;;;;;;1.33;0.98;;;;;;;17.71;76.67;100336.56;10313479;28;20053;-59
2021/08/22 19:03:52;;;;;;;2.78;1.13;;;;;;;17.70;74.86;100351.88;10309281;28;20085;-59
2021/08/22 19:08:57;;;;;;;4.20;1.75;;;;;;;17.63;75.49;100359.78;10322526;28;20078;-58
2021/08/22 19:13:58;;;;;;;2.90;2.40;;;;;;;17.64;78.91;100369.53;10312664;28;20074;-59
2021/08/22 19:19:00;;;;;;;3.15;2.47;;;;;;;17.69;78.09;100373.59;10309766;28;20780;-58
2021/08/22 19:24:02;;;;;;;2.63;1.67;;;;;;;17.63;77.35;100367.84;10310057;28;20200;-58
2021/08/22 19:29:03;;;;;;;2.72;1.90;;;;;;;17.69;75.55;100381.66;10313107;28;20131;-59
2021/08/22 19:34:05;;;;;;;3.20;2.90;;;;;;;17.71;79.40;100385.84;10304389;28;20089;-59
2021/08/22 19:39:07;;;;;;;2.85;1.67;;;;;;;17.73;78.55;100388.38;10308614;28;20050;-59
2021/08/22 19:44:08;;;;;;;2.50;1.35;;;;;;;17.78;78.61;100391.44;10304156;28;20131;-61
2021/08/22 19:49:10;;;;;;;4.30;2.17;;;;;;;17.83;77.78;100389.06;10308270;28;20061;-59
2021/08/22 19:54:12;;;;;;;3.83;2.17;;;;;;;17.86;79.98;100391.41;10303616;28;20127;-59
2021/08/22 19:59:13;;;;;;;3.53;2.33;;;;;;;17.87;79.71;100397.66;10320700;28;20612;-59
2021/08/22 20:04:18;;;;;;;3.35;2.42;;;;;;;17.73;78.90;100399.16;10310965;28;20133;-60
2021/08/22 20:09:19;;;;;;;3.63;2.08;;;;;;;17.73;81.06;100409.91;10307617;28;20614;-58
2021/08/22 20:14:21;;;;;;;3.72;2.88;;;;;;;17.78;82.78;100402.19;10302854;28;20563;-59
2021/08/22 20:19:22;;;;;;;5.50;3.00;;;;;;;17.81;82.99;100401.84;10307197;28;20161;-59
2021/08/22 20:24:25;;;;;;;3.13;2.75;;;;;;;17.84;83.10;100401.53;10304093;28;20061;-62
2021/08/22 20:29:27;;;;;;;3.95;3.00;;;;;;;17.81;84.13;100401.84;10309982;28;20062;-58
2021/08/22 20:34:28;;;;;;;3.42;3.03;;;;;;;17.70;85.06;100405.72;10316045;28;20871;-60
2021/08/22 20:39:33;;;;;;;4.88;3.30;;;;;;;17.62;85.94;100401.13;10308677;28;20054;-58
2021/08/22 20:44:35;;;;;;;4.03;2.75;;;;;;;17.51;84.55;100406.84;10313576;28;20128;-58
2021/08/22 20:49:36;;;;;;;2.90;2.67;;;;;;;17.45;84.08;100407.53;10314791;28;20638;-58
2021/08/22 20:54:38;;;;;;;4.18;2.47;;;;;;;17.47;83.88;100408.19;10309210;28;20060;-58
2021/08/22 20:59:39;;;;;;;4.90;3.10;;;;;;;17.52;84.16;100413.94;10311459;28;21104;-59
2021/08/22 21:04:41;;;;;;;3.88;3.45;;;;;;;17.49;85.02;100416.97;10314076;28;20193;-59
2021/08/22 21:09:43;;;;;;;5.68;3.97;;;;;;;17.54;86.28;100417.28;10315645;28;20172;-59
2021/08/22 21:14:44;;;;;;;6.32;3.55;;;;;;;17.50;84.93;100418.63;10316082;28;20197;-60
2021/08/22 21:19:46;;;;;;;4.93;2.90;;;;;;;17.46;83.30;100423.50;10309254;28;20576;-58
2021/08/22 21:24:47;;;;;;;4.63;3.15;;;;;;;17.43;83.33;100421.16;10314791;28;20790;-59
2021/08/22 21:29:48;;;;;;;4.85;3.10;;;;;;;17.49;84.20;100430.41;10318237;28;20117;-58
2021/08/22 21:34:50;;;;;;;3.88;2.60;;;;;;;17.49;83.30;100430.41;10322013;28;20042;-61
2021/08/22 21:39:51;;;;;;;3.45;2.28;;;;;;;17.45;82.74;100421.81;10330274;28;20074;-60
2021/08/22 21:44:53;;;;;;;3.22;2.25;;;;;;;17.49;82.58;100433.09;10328322;28;20541;-59
2021/08/22 21:49:54;;;;;;;2.88;2.13;;;;;;;17.49;84.00;100430.41;10332852;28;20504;-60
2021/08/22 21:54:58;;;;;;;4.00;2.67;;;;;;;17.50;83.09;100437.47;10328584;28;20077;-59
2021/08/22 22:00:00;;;;;;;3.73;3.07;;;;;;;17.51;82.28;100433.78;10327277;28;20136;-59
2021/08/22 22:05:03;;;;;;;2.45;2.05;;;;;;;17.45;83.14;100429.03;10333731;28;20137;-59
2021/08/22 22:10:06;;;;;;;3.85;2.65;;;;;;;17.45;82.53;100426.34;10333054;28;20157;-60
2021/08/22 22:15:08;;;;;;;3.28;2.00;;;;;;;17.45;83.89;100431.75;10324219;28;20058;-63
2021/08/22 22:20:10;;;;;;;2.22;1.58;;;;;;;17.34;82.68;100429.34;10325946;28;20735;-58
2021/08/22 22:25:12;;;;;;;2.83;1.90;;;;;;;17.25;83.08;100436.53;10327375;28;20100;-57
2021/08/22 22:30:13;;;;;;;4.75;2.28;;;;;;;17.16;83.83;100430.31;10327543;28;20127;-61
2021/08/22 22:35:15;;;;;;;3.17;1.80;;;;;;;17.20;84.86;100439.72;10317233;28;20077;-58
2021/08/22 22:40:16;;;;;;;4.03;2.25;;;;;;;17.17;84.89;100437.34;10317997;28;20516;-59
2021/08/22 22:45:18;;;;;;;4.20;3.90;;;;;;;17.03;84.53;100427.22;10321935;28;20112;-61
2021/08/22 22:50:19;;;;;;;2.10;1.75;;;;;;;17.08;86.30;100427.56;10320571;28;20050;-58
2021/08/22 22:55:21;;;;;;;2.85;2.10;;;;;;;17.10;85.36;100433.66;10335549;28;20058;-61
2021/08/22 23:00:22;;;;;;;3.47;1.95;;;;;;;17.13;85.41;100436.84;10331202;28;20082;-59
2021/08/22 23:05:24;;;;;;;2.40;1.80;;;;;;;17.07;85.40;100425.88;10331132;28;20054;-60
2021/08/22 23:10:25;;;;;;;2.15;1.80;;;;;;;16.96;84.44;100427.00;10337228;28;20081;-60
2021/08/22 23:15:26;;;;;;;2.05;1.50;;;;;;;16.68;85.14;100432.56;10325277;28;20488;-60